This is the latest recevied weather packets stored in our database for station/object KA5FVT. If no packets are shown the sender has not sent any weather packets the latest 10 day(s).
| Time | Temp. | Humidity | Pressure | Rain* | Wind** | Luminosity | Snow |
|---|---|---|---|---|---|---|---|
| 1777330166 | 30° C | 70% | 1009.6 hPa | 0 mm | - | - | - |
| 1777323866 | 31.11° C | 67% | 1009.7 hPa | 0 mm | - | - | - |
| 1777323266 | 31.11° C | 67% | 1009.7 hPa | 0 mm | - | - | - |
| 1777322669 | 31.11° C | 67% | 1009.7 hPa | 0 mm | - | - | - |
| 1777322066 | 31.11° C | 68% | 1009.6 hPa | 0 mm | - | - | - |
| 1777319966 | 31.11° C | 67% | 1010 hPa | 0 mm | - | - | - |
| 1777317866 | 31.67° C | 67% | 1010.1 hPa | 0 mm | - | - | - |
| 1777317566 | 31.11° C | 67% | 1010.2 hPa | 0 mm | - | - | - |
| 1777317266 | 31.11° C | 68% | 1010.2 hPa | 0 mm | - | - | - |
| 1777315166 | 31.67° C | 68% | 1010.4 hPa | 0 mm | - | - | - |
| 1777314869 | 31.67° C | 67% | 1010.3 hPa | 0 mm | - | - | - |
| 1777309766 | 30° C | 74% | 1010.8 hPa | 0 mm | - | - | - |
| 1777308269 | 29.44° C | 74% | 1010.7 hPa | 0 mm | - | - | - |
| 1777307366 | 28.89° C | 76% | 1010.8 hPa | 0 mm | - | - | - |
| 1777303469 | 27.22° C | 82% | 1010.5 hPa | 0 mm | - | - | - |
| 1777301366 | 26.67° C | 85% | 1010.5 hPa | 0 mm | - | - | - |
| 1777300766 | 26.67° C | 85% | 1010.6 hPa | 0 mm | - | - | - |
| 1777299866 | 26.67° C | 86% | 1010.5 hPa | 0 mm | - | - | - |
| 1777298966 | 26.11° C | 86% | 1010.4 hPa | 0 mm | - | - | - |
| 1777298366 | 26.11° C | 86% | 1010.1 hPa | 0 mm | - | - | - |
| 1777294469 | 25.56° C | 89% | 1009.6 hPa | 0 mm | - | - | - |
| 1777289666 | 25.56° C | 88% | 1008.7 hPa | 0 mm | - | - | - |
| 1777288466 | 25.56° C | 88% | 1008.7 hPa | 0 mm | - | - | - |
| 1777287866 | 25.56° C | 88% | 1008.5 hPa | 0 mm | - | - | - |
| 1777286366 | 25.56° C | 88% | 1007.9 hPa | 0 mm | - | - | - |
* Rain latest hour (hover to see other rain measurements)
** Current wind speed in m/s (hover to see current wind gust speed)